createdAt,value
2019-03-29T00:02:13.973Z,87.80
2019-03-29T00:04:40.160Z,88.10
2019-03-29T00:07:06.420Z,88.00
2019-03-29T00:09:32.583Z,88.60
2019-03-29T00:11:58.781Z,89.10
2019-03-29T00:14:24.949Z,89.60
2019-03-29T00:16:51.298Z,89.60
2019-03-29T00:19:19.651Z,89.60
2019-03-29T00:21:45.849Z,90.00
2019-03-29T00:24:12.120Z,90.10
2019-03-29T00:26:38.298Z,89.50
2019-03-29T00:29:04.492Z,90.20
2019-03-29T00:31:30.678Z,90.30
2019-03-29T00:33:56.894Z,90.40
2019-03-29T00:36:23.042Z,90.50
2019-03-29T00:38:49.384Z,90.50
2019-03-29T00:41:15.561Z,90.60
2019-03-29T00:43:41.732Z,90.60
2019-03-29T00:46:07.981Z,90.70
2019-03-29T00:48:35.789Z,90.70
2019-03-29T00:51:02.255Z,90.90
2019-03-29T00:53:28.419Z,91.10
2019-03-29T00:55:54.735Z,91.00
2019-03-29T00:58:20.923Z,91.10
2019-03-29T01:00:47.115Z,91.20
2019-03-29T01:03:13.275Z,91.30
2019-03-29T01:05:39.682Z,91.40
2019-03-29T01:08:08.124Z,91.60
2019-03-29T01:10:34.145Z,91.70
2019-03-29T01:13:00.313Z,91.70
2019-03-29T01:15:26.557Z,91.90
2019-03-29T01:17:52.725Z,91.90
2019-03-29T01:20:18.938Z,92.20
2019-03-29T01:22:45.107Z,92.30
2019-03-29T01:25:11.805Z,92.40
2019-03-29T01:27:38.156Z,92.40
2019-03-29T01:30:05.329Z,92.60
2019-03-29T01:32:32.399Z,92.80
2019-03-29T01:34:58.636Z,92.70
2019-03-29T01:37:24.800Z,93.20
2019-03-29T01:39:50.976Z,93.00
2019-03-29T01:42:17.328Z,93.10
2019-03-29T01:44:43.612Z,93.10
2019-03-29T01:47:09.802Z,93.10
2019-03-29T01:49:35.988Z,93.10
2019-03-29T01:52:02.161Z,93.10
2019-03-29T01:54:28.405Z,93.00
2019-03-29T01:56:54.592Z,92.90
2019-03-29T01:59:20.789Z,92.90
2019-03-29T02:01:46.962Z,93.00
2019-03-29T02:04:13.163Z,93.30
2019-03-29T02:06:39.729Z,93.30
2019-03-29T02:09:06.052Z,93.40
2019-03-29T02:11:32.536Z,93.60
2019-03-29T02:13:58.725Z,93.50
2019-03-29T02:16:24.933Z,93.50
2019-03-29T02:18:51.107Z,93.40
2019-03-29T02:21:17.314Z,93.70
2019-03-29T02:23:43.511Z,93.60
2019-03-29T02:26:09.709Z,93.70
2019-03-29T02:28:35.869Z,93.80
2019-03-29T02:31:02.074Z,93.80
2019-03-29T02:33:28.298Z,93.90
2019-03-29T02:35:54.470Z,93.80
2019-03-29T02:38:20.698Z,93.80
2019-03-29T02:40:46.869Z,94.00
2019-03-29T02:43:13.058Z,94.00
2019-03-29T02:45:59.221Z,94.30
2019-03-29T02:48:25.393Z,94.20
2019-03-29T02:50:51.597Z,94.00
2019-03-29T02:53:17.813Z,94.00
2019-03-29T02:55:43.980Z,93.90
2019-03-29T02:58:10.158Z,94.00
2019-03-29T03:00:36.869Z,94.00
2019-03-29T03:03:03.237Z,94.20
2019-03-29T03:05:29.415Z,93.50
2019-03-29T03:07:55.593Z,93.70
2019-03-29T03:10:21.835Z,92.90
2019-03-29T03:12:48.040Z,93.60
2019-03-29T03:15:14.429Z,94.40
2019-03-29T03:17:40.742Z,94.50
2019-03-29T03:20:14.407Z,94.60
2019-03-29T03:22:37.698Z,94.40
2019-03-29T03:25:05.306Z,94.30
2019-03-29T03:27:31.485Z,94.10
2019-03-29T03:29:59.743Z,93.70
2019-03-29T03:32:26.054Z,93.30
2019-03-29T03:34:52.258Z,92.70
2019-03-29T03:37:18.528Z,93.30
2019-03-29T03:39:44.731Z,93.80
2019-03-29T03:42:10.910Z,93.30
2019-03-29T03:44:37.469Z,93.40
2019-03-29T03:47:03.638Z,94.50
2019-03-29T03:49:29.834Z,95.90
2019-03-29T03:51:57.403Z,96.40
2019-03-29T03:54:23.613Z,96.20
2019-03-29T03:56:49.942Z,96.10
2019-03-29T03:59:16.478Z,96.00
2019-03-29T04:01:42.854Z,96.00
2019-03-29T04:04:09.186Z,96.10
2019-03-29T04:06:35.352Z,96.30
2019-03-29T04:09:01.573Z,96.10
2019-03-29T04:11:28.877Z,96.00
2019-03-29T04:13:55.062Z,95.80
2019-03-29T04:16:21.229Z,95.80
2019-03-29T04:18:47.439Z,95.80
2019-03-29T04:21:13.701Z,96.10
2019-03-29T04:23:39.977Z,96.00
2019-03-29T04:26:06.147Z,95.80
2019-03-29T04:28:32.328Z,95.50
2019-03-29T04:30:58.556Z,95.60
2019-03-29T04:33:24.732Z,95.10
2019-03-29T04:35:51.213Z,95.00
2019-03-29T04:38:17.370Z,94.70
2019-03-29T04:40:43.605Z,94.20
2019-03-29T04:43:09.875Z,94.20
2019-03-29T04:45:36.083Z,93.80
2019-03-29T04:48:02.554Z,93.90
2019-03-29T04:50:28.741Z,93.90
2019-03-29T04:52:54.920Z,93.80
2019-03-29T04:55:21.092Z,93.50
2019-03-29T04:57:47.394Z,93.50
2019-03-29T05:00:13.887Z,93.20
2019-03-29T05:02:40.073Z,93.70
2019-03-29T05:05:06.371Z,95.10
2019-03-29T05:07:32.565Z,95.80
2019-03-29T05:09:58.931Z,96.00
2019-03-29T05:12:25.227Z,96.00
2019-03-29T05:14:51.430Z,95.80
2019-03-29T05:17:17.599Z,95.70
2019-03-29T05:19:44.719Z,95.00
2019-03-29T05:22:11.053Z,94.30
2019-03-29T05:24:37.217Z,94.10
2019-03-29T05:27:03.412Z,94.00
2019-03-29T05:29:29.587Z,94.20
2019-03-29T05:31:55.851Z,93.70
2019-03-29T05:34:22.027Z,94.00
2019-03-29T05:36:48.295Z,93.90
2019-03-29T05:39:14.544Z,93.60
2019-03-29T05:41:40.740Z,93.20
2019-03-29T05:44:07.058Z,93.00
2019-03-29T05:46:33.285Z,92.50
2019-03-29T05:48:59.482Z,92.20
2019-03-29T05:51:25.645Z,91.60
2019-03-29T05:53:51.849Z,90.20
2019-03-29T05:56:18.031Z,86.50
2019-03-29T05:58:44.240Z,83.90
2019-03-29T06:01:10.432Z,81.40
2019-03-29T06:03:36.642Z,76.00
2019-03-29T06:06:02.793Z,74.00
2019-03-29T06:08:28.975Z,72.50
2019-03-29T06:10:55.344Z,70.30
2019-03-29T06:13:21.673Z,68.90
2019-03-29T06:15:48.076Z,67.80
2019-03-29T06:18:14.698Z,68.60
2019-03-29T06:20:40.873Z,64.10
2019-03-29T06:23:07.049Z,60.60
2019-03-29T06:25:34.342Z,60.20
2019-03-29T06:28:00.657Z,60.80
2019-03-29T06:30:28.206Z,62.20
2019-03-29T06:32:54.375Z,62.50
2019-03-29T06:35:21.791Z,64.00
2019-03-29T06:37:48.078Z,66.10
2019-03-29T06:40:23.351Z,66.40
2019-03-29T06:42:49.517Z,63.60
2019-03-29T06:45:15.745Z,59.60
2019-03-29T06:47:41.921Z,56.40
2019-03-29T06:50:08.161Z,55.40
2019-03-29T06:52:34.332Z,55.30
2019-03-29T06:55:00.528Z,54.80
2019-03-29T06:57:26.697Z,56.10
2019-03-29T06:59:54.647Z,55.30
2019-03-29T07:02:22.094Z,57.50
2019-03-29T07:04:48.276Z,61.40
2019-03-29T07:07:14.494Z,63.40
2019-03-29T07:09:40.861Z,61.70
2019-03-29T07:12:07.064Z,60.80
2019-03-29T07:14:33.244Z,59.40
2019-03-29T07:16:59.448Z,59.50
2019-03-29T07:19:25.637Z,62.50
2019-03-29T07:21:51.889Z,62.70
2019-03-29T07:24:18.192Z,59.00
2019-03-29T07:26:44.372Z,58.70
2019-03-29T07:29:10.572Z,57.90
2019-03-29T07:31:36.753Z,55.10
2019-03-29T07:34:03.128Z,53.00
2019-03-29T07:36:29.314Z,50.10
2019-03-29T07:38:55.495Z,50.70
2019-03-29T07:41:31.650Z,50.60
2019-03-29T07:43:49.953Z,51.40
2019-03-29T07:46:16.147Z,48.00
2019-03-29T07:48:42.326Z,45.30
2019-03-29T07:51:08.554Z,45.90
2019-03-29T07:53:34.724Z,46.20
2019-03-29T07:56:00.912Z,46.90
2019-03-29T07:58:27.089Z,47.30
2019-03-29T08:00:53.483Z,46.00
2019-03-29T08:03:21.242Z,45.10
2019-03-29T08:05:47.856Z,46.50
2019-03-29T08:08:24.130Z,45.20
2019-03-29T08:10:43.129Z,47.80
2019-03-29T08:13:09.327Z,44.90
2019-03-29T08:15:35.527Z,41.50
2019-03-29T08:18:02.080Z,43.40
2019-03-29T08:20:44.630Z,44.00
2019-03-29T08:22:56.556Z,44.60
2019-03-29T08:25:22.715Z,43.20
2019-03-29T08:27:48.921Z,42.30
2019-03-29T08:30:15.260Z,45.90
2019-03-29T08:32:41.548Z,45.90
2019-03-29T08:35:08.348Z,45.40
2019-03-29T08:37:34.531Z,46.70
2019-03-29T08:40:00.908Z,46.10
2019-03-29T08:42:27.124Z,46.90
2019-03-29T08:44:53.301Z,45.60
2019-03-29T08:47:20.595Z,46.80
2019-03-29T08:49:46.827Z,48.20
2019-03-29T08:52:13.001Z,46.40
2019-03-29T08:54:39.171Z,44.40
2019-03-29T08:57:05.374Z,45.30
2019-03-29T08:59:32.841Z,46.00
2019-03-29T09:01:59.132Z,45.00
2019-03-29T09:04:25.517Z,43.10
2019-03-29T09:06:54.129Z,43.90
2019-03-29T09:09:20.751Z,43.80
2019-03-29T09:11:47.025Z,41.50
2019-03-29T09:14:14.472Z,40.80
2019-03-29T09:16:40.714Z,39.90
2019-03-29T09:19:08.048Z,42.00
2019-03-29T09:21:34.263Z,40.10
2019-03-29T09:24:00.511Z,40.20
2019-03-29T09:26:26.836Z,38.90
2019-03-29T09:28:53.211Z,37.40
2019-03-29T09:31:19.406Z,37.60
2019-03-29T09:33:45.591Z,35.80
2019-03-29T09:36:12.045Z,36.70
2019-03-29T09:38:38.306Z,36.80
2019-03-29T09:41:04.493Z,35.90
2019-03-29T09:43:30.710Z,37.30
2019-03-29T09:45:56.950Z,36.30
2019-03-29T09:48:23.145Z,36.90
2019-03-29T09:50:50.882Z,40.50
2019-03-29T09:53:17.470Z,39.90
2019-03-29T09:55:45.719Z,38.70
2019-03-29T09:58:11.773Z,37.80
2019-03-29T10:00:38.099Z,37.50
2019-03-29T10:03:04.328Z,36.60
2019-03-29T10:05:31.536Z,37.00
2019-03-29T10:07:58.104Z,35.70
2019-03-29T10:10:24.389Z,33.90
2019-03-29T10:12:50.558Z,36.30
2019-03-29T10:15:16.834Z,37.10
2019-03-29T10:17:43.111Z,36.50
2019-03-29T10:20:09.745Z,33.80
2019-03-29T10:22:36.225Z,34.50
2019-03-29T10:25:18.577Z,38.60
2019-03-29T10:27:33.213Z,38.60
2019-03-29T10:29:59.660Z,37.10
2019-03-29T10:32:25.881Z,37.30
2019-03-29T10:34:52.204Z,34.90
2019-03-29T10:37:19.410Z,34.40
2019-03-29T10:39:45.632Z,35.10
2019-03-29T10:42:11.909Z,37.30
2019-03-29T10:44:38.072Z,35.80
2019-03-29T10:47:04.304Z,34.50
2019-03-29T10:49:30.508Z,34.80
2019-03-29T10:51:56.685Z,33.70
2019-03-29T10:54:23.074Z,32.60
2019-03-29T10:56:49.423Z,33.60
2019-03-29T10:59:26.800Z,34.60
2019-03-29T11:01:43.673Z,34.20
2019-03-29T11:04:10.234Z,36.00
2019-03-29T11:06:36.417Z,34.70
2019-03-29T11:09:05.516Z,34.40
2019-03-29T11:11:31.832Z,32.60
2019-03-29T11:13:58.306Z,29.10
2019-03-29T11:16:24.542Z,31.00
2019-03-29T11:18:50.874Z,33.30
2019-03-29T11:21:17.077Z,32.30
2019-03-29T11:23:43.335Z,31.90
2019-03-29T11:26:09.544Z,34.50
2019-03-29T11:28:35.735Z,30.10
2019-03-29T11:31:01.994Z,30.50
2019-03-29T11:33:28.238Z,31.00
2019-03-29T11:35:54.425Z,31.00
2019-03-29T11:38:20.615Z,29.40
2019-03-29T11:40:46.837Z,32.70
2019-03-29T11:43:26.033Z,31.70
2019-03-29T11:45:41.253Z,30.00
2019-03-29T11:48:09.390Z,30.90
2019-03-29T11:50:36.729Z,30.00
2019-03-29T11:53:03.104Z,28.30
2019-03-29T11:58:29.618Z,29.20
2019-03-29T12:00:55.989Z,31.00
2019-03-29T12:03:22.192Z,31.80
2019-03-29T12:05:49.086Z,37.00
2019-03-29T12:08:15.300Z,39.80
2019-03-29T12:10:41.513Z,42.40
2019-03-29T12:13:08.549Z,45.00
2019-03-29T12:15:49.260Z,45.50
2019-03-29T12:18:23.423Z,44.50
2019-03-29T12:20:49.631Z,46.10
2019-03-29T12:23:16.362Z,46.60
2019-03-29T12:25:42.743Z,47.10
2019-03-29T12:28:09.020Z,46.60
2019-03-29T12:30:35.411Z,48.10
2019-03-29T12:33:01.809Z,47.70
2019-03-29T12:35:28.034Z,45.10
2019-03-29T12:37:55.379Z,44.80
2019-03-29T12:40:21.632Z,44.80
2019-03-29T12:42:47.900Z,45.00
2019-03-29T12:45:15.600Z,47.60
2019-03-29T12:47:41.762Z,46.40
2019-03-29T12:50:08.315Z,46.70
2019-03-29T12:52:34.497Z,45.90
2019-03-29T12:55:00.705Z,47.90
2019-03-29T12:57:26.929Z,48.00
2019-03-29T12:59:53.230Z,47.20
2019-03-29T13:02:19.430Z,45.00
2019-03-29T13:04:47.313Z,43.90
2019-03-29T13:07:13.796Z,43.30
2019-03-29T13:09:41.930Z,43.70
2019-03-29T13:12:08.254Z,43.20
2019-03-29T13:14:34.446Z,43.40
2019-03-29T13:17:02.818Z,44.90
2019-03-29T13:19:28.791Z,45.30
2019-03-29T13:21:58.130Z,45.90
2019-03-29T13:24:24.261Z,46.20
2019-03-29T13:26:50.505Z,45.50
2019-03-29T13:29:16.725Z,45.10
2019-03-29T13:31:43.085Z,45.20
2019-03-29T13:34:09.684Z,45.40
2019-03-29T13:36:36.049Z,44.30
2019-03-29T13:39:05.378Z,44.40
2019-03-29T13:41:31.585Z,44.40
2019-03-29T13:43:57.772Z,45.00
2019-03-29T13:46:24.006Z,45.30
2019-03-29T13:48:50.419Z,45.10
2019-03-29T13:51:16.843Z,43.70
2019-03-29T13:53:43.031Z,44.00
2019-03-29T13:56:09.269Z,45.00
2019-03-29T13:58:35.864Z,45.10
2019-03-29T14:01:02.105Z,44.60
2019-03-29T14:03:28.306Z,44.80
2019-03-29T14:05:54.664Z,45.50
2019-03-29T14:08:21.039Z,45.70
2019-03-29T14:10:47.273Z,44.80
2019-03-29T14:13:14.534Z,45.60
2019-03-29T14:15:40.852Z,46.40
2019-03-29T14:18:07.044Z,46.40
2019-03-29T14:20:33.508Z,45.30
2019-03-29T14:23:01.104Z,44.70
2019-03-29T14:25:27.409Z,44.20
2019-03-29T14:27:53.590Z,44.20
2019-03-29T14:30:19.801Z,44.10
2019-03-29T14:32:45.977Z,44.00
2019-03-29T14:35:12.349Z,44.30
2019-03-29T14:37:38.575Z,44.70
2019-03-29T14:40:07.020Z,43.90
2019-03-29T14:42:33.526Z,43.40
2019-03-29T14:44:59.778Z,43.00
2019-03-29T14:47:39.837Z,42.00
2019-03-29T14:49:57.248Z,44.00
2019-03-29T14:52:23.524Z,44.20
2019-03-29T14:54:49.776Z,43.50
2019-03-29T14:57:16.005Z,44.10
2019-03-29T14:59:42.194Z,44.40
2019-03-29T15:02:08.504Z,44.30
2019-03-29T15:04:34.753Z,44.00
2019-03-29T15:07:02.004Z,43.40
2019-03-29T15:09:28.677Z,43.60
2019-03-29T15:11:55.012Z,43.50
2019-03-29T15:14:23.147Z,42.80
2019-03-29T15:16:49.385Z,43.30
2019-03-29T15:19:15.595Z,42.70
2019-03-29T15:21:41.912Z,42.50
2019-03-29T15:24:08.155Z,42.30
2019-03-29T15:26:34.353Z,43.70
2019-03-29T15:29:00.628Z,44.10
2019-03-29T15:31:31.401Z,44.80
2019-03-29T15:33:58.320Z,46.10
2019-03-29T15:36:24.514Z,45.00
2019-03-29T15:38:50.877Z,44.60
2019-03-29T15:41:19.456Z,44.30
2019-03-29T15:43:45.679Z,44.50
2019-03-29T15:46:11.974Z,44.30
2019-03-29T15:48:38.290Z,44.80
2019-03-29T15:51:04.456Z,45.70
2019-03-29T15:53:30.655Z,45.30
2019-03-29T15:55:58.095Z,45.30
2019-03-29T15:58:24.453Z,44.70
2019-03-29T16:00:50.660Z,44.90
2019-03-29T16:03:17.035Z,45.20
2019-03-29T16:05:43.319Z,45.90
2019-03-29T16:08:09.497Z,46.30
2019-03-29T16:10:35.740Z,46.30
2019-03-29T16:13:01.904Z,46.70
2019-03-29T16:15:34.955Z,47.00
2019-03-29T16:17:56.189Z,46.90
2019-03-29T16:20:22.372Z,47.10
2019-03-29T16:22:48.579Z,47.10
2019-03-29T16:25:14.776Z,47.20
2019-03-29T16:27:41.053Z,47.10
2019-03-29T16:30:08.168Z,47.20
2019-03-29T16:32:35.502Z,47.00
2019-03-29T16:35:02.695Z,47.40
2019-03-29T16:37:29.303Z,47.40
2019-03-29T16:39:55.497Z,47.80
2019-03-29T16:42:21.747Z,48.00
2019-03-29T16:44:48.069Z,47.90
2019-03-29T16:47:15.283Z,48.80
2019-03-29T16:49:41.555Z,47.50
2019-03-29T16:52:08.721Z,47.60
2019-03-29T16:54:36.149Z,46.90
2019-03-29T16:57:02.439Z,47.50
2019-03-29T16:59:29.149Z,48.90
2019-03-29T17:01:55.969Z,49.70
2019-03-29T17:04:22.138Z,50.30
2019-03-29T17:06:48.324Z,50.90
2019-03-29T17:09:14.553Z,51.30
2019-03-29T17:11:40.729Z,51.90
2019-03-29T17:14:06.968Z,52.30
2019-03-29T17:16:33.140Z,52.50
2019-03-29T17:18:59.420Z,52.90
2019-03-29T17:21:25.685Z,52.90
2019-03-29T17:23:52.919Z,53.40
2019-03-29T17:26:19.414Z,53.70
2019-03-29T17:28:45.679Z,53.90
2019-03-29T17:31:13.775Z,54.30
2019-03-29T17:33:40.001Z,54.70
2019-03-29T17:36:06.219Z,55.20
2019-03-29T17:38:32.421Z,55.70
2019-03-29T17:40:58.603Z,56.20
2019-03-29T17:43:24.836Z,56.60
2019-03-29T17:45:51.114Z,56.80
2019-03-29T17:48:17.336Z,57.30
2019-03-29T17:50:43.576Z,57.50
2019-03-29T17:53:11.679Z,57.90
2019-03-29T17:55:39.588Z,58.20
2019-03-29T17:58:06.012Z,58.40
2019-03-29T18:00:32.192Z,58.60
2019-03-29T18:02:59.555Z,59.20
2019-03-29T18:05:25.982Z,59.00
2019-03-29T18:07:52.521Z,59.90
2019-03-29T18:10:19.852Z,59.30
2019-03-29T18:12:46.112Z,59.40
2019-03-29T18:15:13.260Z,59.60
2019-03-29T18:17:39.508Z,60.10
2019-03-29T18:20:06.902Z,60.30
2019-03-29T18:22:33.060Z,61.30
2019-03-29T18:24:59.328Z,61.10
2019-03-29T18:27:25.524Z,61.40
2019-03-29T18:29:51.743Z,61.70
2019-03-29T18:32:18.124Z,61.90
2019-03-29T18:34:44.281Z,62.60
2019-03-29T18:37:12.013Z,63.10
2019-03-29T18:39:38.457Z,63.30
2019-03-29T18:42:04.617Z,63.70
2019-03-29T18:44:30.805Z,64.00
2019-03-29T18:46:57.070Z,64.10
2019-03-29T18:49:23.241Z,64.20
2019-03-29T18:51:49.452Z,64.50
2019-03-29T18:54:15.636Z,64.70
2019-03-29T18:56:41.834Z,64.80
2019-03-29T18:59:08.057Z,65.00
2019-03-29T19:01:34.239Z,65.20
2019-03-29T19:04:00.403Z,65.40
2019-03-29T19:06:26.594Z,65.80
2019-03-29T19:08:52.776Z,66.20
2019-03-29T19:11:18.944Z,66.60
2019-03-29T19:13:45.129Z,66.90
2019-03-29T19:16:11.341Z,67.30
2019-03-29T19:18:37.531Z,67.20
2019-03-29T19:21:03.715Z,67.60
2019-03-29T19:23:30.925Z,67.80
2019-03-29T19:25:57.129Z,68.00
2019-03-29T19:28:23.394Z,68.30
2019-03-29T19:30:49.670Z,68.60
2019-03-29T19:33:15.896Z,69.10
2019-03-29T19:35:42.082Z,69.10
2019-03-29T19:38:08.477Z,69.30
2019-03-29T19:40:34.735Z,69.60
2019-03-29T19:43:01.277Z,69.50
2019-03-29T19:45:28.668Z,69.80
2019-03-29T19:47:54.894Z,71.00
2019-03-29T19:50:22.003Z,70.30
2019-03-29T19:52:48.380Z,71.30
2019-03-29T19:55:14.538Z,71.70
2019-03-29T19:57:40.727Z,71.70
2019-03-29T20:00:12.259Z,71.70
2019-03-29T20:02:38.637Z,71.00
2019-03-29T20:05:08.638Z,72.10
2019-03-29T20:07:34.825Z,72.50
2019-03-29T20:10:00.984Z,72.70
2019-03-29T20:12:27.178Z,73.50
2019-03-29T20:14:54.361Z,73.10
2019-03-29T20:17:27.429Z,73.70
2019-03-29T20:19:48.887Z,74.00
2019-03-29T20:22:16.363Z,74.10
2019-03-29T20:24:42.816Z,74.60
2019-03-29T20:27:09.065Z,76.20
2019-03-29T20:29:35.245Z,75.70
2019-03-29T20:32:01.481Z,76.90
2019-03-29T20:34:27.677Z,78.90
2019-03-29T20:36:53.851Z,78.90
2019-03-29T20:39:20.032Z,78.60
2019-03-29T20:41:46.228Z,77.80
2019-03-29T20:44:12.473Z,77.80
2019-03-29T20:46:38.650Z,78.70
2019-03-29T20:49:04.959Z,80.60
2019-03-29T20:51:31.115Z,81.50
2019-03-29T20:53:57.324Z,81.40
2019-03-29T20:56:23.601Z,81.20
2019-03-29T20:58:49.848Z,82.10
2019-03-29T21:01:16.343Z,82.10
2019-03-29T21:03:42.508Z,82.00
2019-03-29T21:06:08.990Z,81.20
2019-03-29T21:08:36.264Z,80.90
2019-03-29T21:11:02.971Z,80.00
2019-03-29T21:13:29.389Z,81.40
2019-03-29T21:15:55.642Z,81.70
2019-03-29T21:18:21.895Z,83.30
2019-03-29T21:20:48.081Z,84.60
2019-03-29T21:23:14.507Z,84.70
2019-03-29T21:25:40.684Z,85.20
2019-03-29T21:28:06.885Z,85.30
2019-03-29T21:30:33.097Z,85.30
2019-03-29T21:32:59.272Z,84.70
2019-03-29T21:35:25.455Z,84.70
2019-03-29T21:37:51.620Z,85.10
2019-03-29T21:40:17.851Z,85.60
2019-03-29T21:42:44.128Z,86.10
2019-03-29T21:45:10.816Z,85.60
2019-03-29T21:47:36.994Z,86.30
2019-03-29T21:50:06.748Z,87.00
2019-03-29T21:52:32.917Z,86.10
2019-03-29T21:54:59.081Z,86.60
2019-03-29T21:57:25.278Z,86.30
2019-03-29T21:59:51.566Z,87.10
2019-03-29T22:02:17.767Z,88.10
2019-03-29T22:04:44.013Z,86.80
2019-03-29T22:07:10.285Z,86.70
2019-03-29T22:09:37.437Z,87.50
2019-03-29T22:12:04.250Z,89.10
2019-03-29T22:14:30.430Z,87.90
2019-03-29T22:16:56.597Z,87.80
2019-03-29T22:19:22.794Z,88.20
2019-03-29T22:21:48.987Z,88.80
2019-03-29T22:24:15.167Z,88.10
2019-03-29T22:26:41.340Z,89.00
2019-03-29T22:29:07.533Z,88.10
2019-03-29T22:31:33.735Z,88.40
2019-03-29T22:34:00.917Z,88.90
2019-03-29T22:36:27.119Z,89.30
2019-03-29T22:38:53.305Z,89.40
2019-03-29T22:41:19.513Z,88.10
2019-03-29T22:43:45.709Z,87.50
2019-03-29T22:46:11.896Z,87.80
2019-03-29T22:48:51.523Z,89.60
2019-03-29T22:51:06.630Z,90.60
2019-03-29T22:53:32.837Z,90.80
2019-03-29T22:55:59.004Z,90.40
2019-03-29T22:58:28.338Z,90.20
2019-03-29T23:00:54.296Z,90.50
2019-03-29T23:03:21.272Z,90.70
2019-03-29T23:05:48.488Z,91.50
2019-03-29T23:08:14.652Z,91.40
2019-03-29T23:10:40.874Z,91.00
2019-03-29T23:13:07.040Z,91.10
2019-03-29T23:15:33.633Z,91.30
2019-03-29T23:17:59.803Z,91.80
2019-03-29T23:20:25.989Z,91.90
2019-03-29T23:22:52.223Z,91.90
2019-03-29T23:25:18.420Z,91.90
2019-03-29T23:27:44.796Z,91.60
2019-03-29T23:30:11.387Z,90.80
2019-03-29T23:32:37.548Z,91.60
2019-03-29T23:35:05.644Z,91.10
2019-03-29T23:37:31.873Z,91.30
2019-03-29T23:39:58.202Z,91.20
2019-03-29T23:42:24.369Z,91.50
2019-03-29T23:44:50.710Z,91.50
2019-03-29T23:47:17.214Z,91.60
2019-03-29T23:49:43.588Z,91.50
2019-03-29T23:52:09.783Z,91.70
2019-03-29T23:54:36.074Z,91.80
2019-03-29T23:57:02.320Z,91.80
2019-03-29T23:59:28.500Z,91.90
